Antioch, Illinois
Current Conditions -  °F | °C
As of 1:53 AM on Tuesday 27 Jan 2015 (Local Time) from KENW Reporting Station
Haze Haze  
Wind Chill: -3°   Ceiling: 1900
Heat Index: -3°   Visibility: 6mi
Dew Point: -4°   Wind: 0mph
Humidity: 92%   Direction: NA
Pressure: 29.95"   Gusts: NA
Location:  42.48°N, 88.1°W
Report Text: KENW 270753Z AUTO 00000KT 6SM BR OVC019 M03/M04 A2995 RMK AO2 SLP151 T10331044
Loading
Personal Weather Stations






























Interactive Weather Map New forecast layout! Learn more

10-Day Weather Forecast

Advertisements
Track Severe Weather on mobile